createdAt,value
2019-02-23T00:03:17.132Z,8.35
2019-02-23T00:09:19.393Z,8.40
2019-02-23T00:15:21.758Z,8.10
2019-02-23T00:21:24.022Z,8.25
2019-02-23T00:27:26.289Z,8.35
2019-02-23T00:33:28.590Z,8.73
2019-02-23T00:39:30.730Z,8.33
2019-02-23T00:45:32.937Z,7.65
2019-02-23T00:51:35.134Z,7.15
2019-02-23T00:57:37.452Z,7.35
2019-02-23T01:03:39.670Z,7.72
2019-02-23T01:09:41.916Z,7.67
2019-02-23T01:15:45.276Z,7.50
2019-02-23T01:21:47.520Z,7.50
2019-02-23T01:27:49.776Z,7.10
2019-02-23T01:33:52.020Z,7.78
2019-02-23T01:39:54.386Z,7.67
2019-02-23T01:45:56.775Z,7.75
2019-02-23T01:51:58.930Z,8.20
2019-02-23T01:58:01.265Z,7.12
2019-02-23T02:04:04.556Z,7.35
2019-02-23T02:10:08.157Z,6.05
2019-02-23T02:16:10.438Z,7.70
2019-02-23T02:22:12.691Z,7.40
2019-02-23T02:28:14.972Z,7.87
2019-02-23T02:34:17.237Z,8.45
2019-02-23T02:40:19.463Z,8.18
2019-02-23T02:46:21.668Z,8.60
2019-02-23T02:52:23.841Z,7.90
2019-02-23T02:58:26.297Z,7.78
2019-02-23T03:04:28.536Z,8.35
2019-02-23T03:10:30.806Z,8.70
2019-02-23T03:16:33.000Z,8.18
2019-02-23T03:22:35.275Z,8.03
2019-02-23T03:28:37.524Z,8.93
2019-02-23T03:34:39.741Z,9.45
2019-02-23T03:40:41.912Z,8.88
2019-02-23T03:46:44.227Z,8.20
2019-02-23T03:52:46.596Z,7.10
2019-02-23T03:58:48.986Z,8.73
2019-02-23T04:04:51.224Z,8.20
2019-02-23T04:10:53.463Z,8.15
2019-02-23T04:16:55.715Z,9.75
2019-02-23T04:22:57.889Z,9.15
2019-02-23T04:29:00.168Z,9.05
2019-02-23T04:35:02.382Z,8.38
2019-02-23T04:41:04.686Z,9.83
2019-02-23T04:47:06.953Z,10.10
2019-02-23T04:53:09.087Z,9.75
2019-02-23T04:59:11.400Z,8.98
2019-02-23T05:05:14.851Z,9.28
2019-02-23T05:11:17.149Z,10.85
2019-02-23T05:17:19.413Z,10.13
2019-02-23T05:23:22.760Z,11.33
2019-02-23T05:29:24.985Z,10.08
2019-02-23T05:35:27.334Z,10.25
2019-02-23T05:41:29.596Z,10.08
2019-02-23T05:47:31.981Z,9.65
2019-02-23T05:53:34.173Z,10.88
2019-02-23T05:59:36.568Z,9.98
2019-02-23T06:05:38.888Z,9.53
2019-02-23T06:11:41.154Z,10.28
2019-02-23T06:17:43.421Z,9.38
2019-02-23T06:23:45.664Z,9.23
2019-02-23T06:29:47.953Z,8.70
2019-02-23T06:35:50.243Z,10.48
2019-02-23T06:41:52.512Z,10.05
2019-02-23T06:47:54.785Z,8.70
2019-02-23T06:53:56.996Z,10.23
2019-02-23T06:59:59.307Z,9.00
2019-02-23T07:06:01.535Z,9.68
2019-02-23T07:12:03.735Z,10.25
2019-02-23T07:18:06.123Z,10.10
2019-02-23T07:24:08.390Z,8.95
2019-02-23T07:30:11.883Z,8.83
2019-02-23T07:36:14.280Z,8.70
2019-02-23T07:42:16.667Z,8.28
2019-02-23T07:48:19.069Z,10.00
2019-02-23T07:54:21.312Z,8.48
2019-02-23T08:00:23.646Z,8.60
2019-02-23T08:06:25.875Z,8.00
2019-02-23T08:12:28.235Z,7.97
2019-02-23T08:18:30.500Z,6.72
2019-02-23T08:24:32.875Z,6.47
2019-02-23T08:30:35.136Z,6.65
2019-02-23T08:36:37.394Z,6.00
2019-02-23T08:42:39.739Z,6.03
2019-02-23T08:48:41.933Z,6.95
2019-02-23T08:54:44.112Z,6.22
2019-02-23T09:00:46.489Z,6.58
2019-02-23T09:06:48.677Z,6.42
2019-02-23T09:12:50.858Z,7.12
2019-02-23T09:18:53.163Z,6.78
2019-02-23T09:24:55.368Z,5.53
2019-02-23T09:30:57.682Z,5.80
2019-02-23T09:37:05.963Z,5.28
2019-02-23T09:43:08.143Z,5.72
2019-02-23T09:49:10.319Z,4.75
2019-02-23T09:55:12.699Z,5.30
2019-02-23T10:01:15.893Z,5.17
2019-02-23T10:07:18.142Z,5.10
2019-02-23T10:13:20.417Z,4.45
2019-02-23T10:19:22.613Z,4.03
2019-02-23T10:25:24.833Z,4.28
2019-02-23T10:31:27.191Z,2.62
2019-02-23T10:37:29.677Z,3.22
2019-02-23T10:43:32.931Z,2.37
2019-02-23T10:49:35.124Z,1.98
2019-02-23T10:55:37.352Z,2.15
2019-02-23T11:01:39.564Z,2.80
2019-02-23T11:07:42.020Z,3.10
2019-02-23T11:13:44.271Z,3.08
2019-02-23T11:19:46.747Z,2.90
2019-02-23T11:25:49.083Z,3.40
2019-02-23T11:31:51.502Z,3.15
2019-02-23T11:37:53.900Z,2.65
2019-02-23T11:43:56.348Z,3.75
2019-02-23T11:50:00.624Z,2.80
2019-02-23T11:56:02.916Z,2.98
2019-02-23T12:02:05.202Z,3.00
2019-02-23T12:08:07.581Z,2.75
2019-02-23T12:14:10.277Z,3.37
2019-02-23T12:20:12.791Z,3.20
2019-02-23T12:26:15.096Z,3.17
2019-02-23T12:32:17.720Z,3.55
2019-02-23T12:38:19.899Z,2.98
2019-02-23T12:44:22.032Z,3.33
2019-02-23T12:50:24.502Z,3.42
2019-02-23T12:56:28.001Z,3.33
2019-02-23T13:02:31.349Z,3.75
2019-02-23T13:09:11.682Z,3.72
2019-02-23T13:15:34.947Z,3.58
2019-02-23T13:21:47.883Z,3.10
2019-02-23T13:28:13.103Z,3.60
2019-02-23T13:35:00.307Z,3.20
2019-02-23T13:41:34.542Z,3.20
2019-02-23T13:47:53.764Z,3.70
2019-02-23T13:54:52.894Z,3.50
2019-02-23T14:01:47.160Z,3.77
2019-02-23T14:08:13.231Z,3.35
2019-02-23T14:14:50.150Z,3.52
2019-02-23T14:21:29.822Z,3.80
2019-02-23T14:28:02.025Z,4.40
2019-02-23T14:34:44.587Z,3.75
2019-02-23T14:41:18.783Z,3.62
2019-02-23T14:47:58.404Z,3.30
2019-02-23T14:54:33.773Z,2.83
2019-02-23T15:01:15.715Z,2.92
2019-02-23T15:08:04.180Z,3.15
2019-02-23T15:15:06.579Z,3.50
2019-02-23T15:21:26.892Z,3.00
2019-02-23T15:27:57.206Z,3.40
2019-02-23T15:34:46.234Z,3.60
2019-02-23T15:41:17.354Z,2.90
2019-02-23T15:47:42.024Z,3.45
2019-02-23T15:53:44.302Z,3.67
2019-02-23T15:59:50.365Z,3.67
2019-02-23T16:05:53.684Z,4.58
2019-02-23T16:11:58.099Z,3.87
2019-02-23T16:18:00.340Z,4.03
2019-02-23T16:24:02.617Z,3.22
2019-02-23T16:30:05.568Z,5.08
2019-02-23T16:36:08.304Z,4.40
2019-02-23T16:42:11.472Z,4.03
2019-02-23T16:48:13.724Z,4.03
2019-02-23T16:54:15.895Z,3.85
2019-02-23T17:00:18.177Z,3.72
2019-02-23T17:06:20.484Z,4.20
2019-02-23T17:12:22.748Z,3.90
2019-02-23T17:18:25.024Z,4.12
2019-02-23T17:24:27.371Z,3.47
2019-02-23T17:30:32.779Z,4.47
2019-02-23T17:36:34.975Z,3.87
2019-02-23T17:42:37.179Z,4.95
2019-02-23T17:48:39.457Z,4.78
2019-02-23T17:54:41.675Z,5.90
2019-02-23T18:00:44.049Z,19.65
2019-02-23T18:06:51.764Z,10.72
2019-02-23T18:12:53.987Z,6.80
2019-02-23T18:18:57.616Z,6.45
2019-02-23T18:24:59.959Z,6.12
2019-02-23T18:31:03.251Z,6.17
2019-02-23T18:37:05.512Z,5.53
2019-02-23T18:43:08.451Z,6.45
2019-02-23T18:49:12.872Z,12.15
2019-02-23T18:55:15.182Z,7.97
2019-02-23T19:01:17.647Z,6.25
2019-02-23T19:07:20.291Z,8.03
2019-02-23T19:13:22.779Z,7.05
2019-02-23T19:19:25.115Z,6.75
2019-02-23T19:25:27.595Z,6.20
2019-02-23T19:31:29.845Z,9.03
2019-02-23T19:37:35.027Z,14.38
2019-02-23T19:43:37.454Z,15.72
2019-02-23T19:49:39.681Z,11.35
2019-02-23T19:55:41.983Z,9.73
2019-02-23T20:01:44.966Z,14.40
2019-02-23T20:07:47.235Z,9.45
2019-02-23T20:13:49.648Z,9.80
2019-02-23T20:19:51.969Z,8.20
2019-02-23T20:25:55.041Z,12.03
2019-02-23T20:31:58.364Z,9.00
2019-02-23T20:38:00.707Z,7.35
2019-02-23T20:44:02.966Z,9.25
2019-02-23T20:50:06.023Z,9.23
2019-02-23T20:56:08.439Z,9.05
2019-02-23T21:02:10.749Z,10.20
2019-02-23T21:08:13.124Z,8.45
2019-02-23T21:14:15.497Z,7.25
2019-02-23T21:20:18.978Z,8.45
2019-02-23T21:26:24.943Z,8.88
2019-02-23T21:32:27.153Z,8.10
2019-02-23T21:38:29.467Z,8.98
2019-02-23T21:44:31.748Z,8.75
2019-02-23T21:50:34.045Z,8.13
2019-02-23T21:56:36.307Z,9.55
2019-02-23T22:02:39.078Z,9.45
2019-02-23T22:08:41.537Z,9.63
2019-02-23T22:14:45.933Z,8.60
2019-02-23T22:20:48.365Z,8.38
2019-02-23T22:26:50.935Z,9.38
2019-02-23T22:32:53.177Z,9.63
2019-02-23T22:38:55.618Z,8.70
2019-02-23T22:44:57.882Z,7.53
2019-02-23T22:51:00.175Z,7.78
2019-02-23T22:57:04.449Z,7.05
2019-02-23T23:03:09.101Z,7.00
2019-02-23T23:09:13.225Z,7.00
2019-02-23T23:15:15.597Z,7.67
2019-02-23T23:21:18.265Z,6.70
2019-02-23T23:27:21.441Z,8.08
2019-02-23T23:33:23.820Z,6.55
2019-02-23T23:39:26.128Z,7.28
2019-02-23T23:45:28.432Z,8.45
2019-02-23T23:51:30.688Z,6.87
2019-02-23T23:57:36.429Z,6.58
